Time;durP1;ratioP1;P1;durP2;ratioP2;P2;SDS_P1;SDS_P2;PMS_P1;PMS_P2;Temp;Humidity;BMP_temperature;BMP_pressure;BME280_temperature;BME280_humidity;BME280_pressure;Samples;Min_cycle;Max_cycle;Signal;HPM_P1;HPM_P2
2023/02/10 00:00:43;;;;;;;25.55;12.85;;;;;;;;;;5024202;28;20060;-89
2023/02/10 00:03:11;;;;;;;27.83;13.00;;;;;;;;;;5027053;28;20045;-89
2023/02/10 00:05:38;;;;;;;23.35;12.68;;;;;;;;;;5025158;28;20088;-89
2023/02/10 00:08:06;;;;;;;26.80;13.15;;;;;;;;;;5026930;28;20111;-89
2023/02/10 00:10:33;;;;;;;25.23;13.32;;;;;;;;;;5026383;28;20077;-89
2023/02/10 00:13:01;;;;;;;25.42;12.77;;;;;;;;;;5022997;28;20062;-89
2023/02/10 00:15:30;;;;;;;26.98;12.93;;;;;;;;;;5044042;28;20140;-89
2023/02/10 00:17:59;;;;;;;26.05;13.73;;;;;;;;;;5026252;28;20076;-89
2023/02/10 00:20:28;;;;;;;24.35;12.73;;;;;;;;;;5025855;28;20056;-89
2023/02/10 00:22:56;;;;;;;30.65;13.52;;;;;;;;;;5025356;28;20053;-89
2023/02/10 00:25:23;;;;;;;24.02;12.10;;;;;;;;;;5025409;28;20053;-89
2023/02/10 00:27:51;;;;;;;26.40;12.68;;;;;;;;;;5027094;28;20056;-89
2023/02/10 00:30:18;;;;;;;27.80;13.05;;;;;;;;;;5010530;28;20103;-89
2023/02/10 00:32:46;;;;;;;32.20;13.68;;;;;;;;;;5027707;28;20054;-88
2023/02/10 00:35:14;;;;;;;26.45;12.80;;;;;;;;;;5010480;28;20060;-88
2023/02/10 00:37:41;;;;;;;21.40;11.30;;;;;;;;;;5026716;28;20095;-89
2023/02/10 00:40:09;;;;;;;25.70;13.30;;;;;;;;;;5026560;28;20060;-89
2023/02/10 00:42:40;;;;;;;26.35;12.95;;;;;;;;;;5026459;28;20564;-89
2023/02/10 00:45:08;;;;;;;23.10;12.65;;;;;;;;;;5027698;28;20049;-88
2023/02/10 00:47:36;;;;;;;25.98;12.48;;;;;;;;;;5026823;28;20053;-89
2023/02/10 00:50:04;;;;;;;21.75;12.07;;;;;;;;;;5026972;28;20053;-88
2023/02/10 00:52:33;;;;;;;24.15;12.23;;;;;;;;;;5028401;28;20069;-89
2023/02/10 00:55:01;;;;;;;18.77;11.05;;;;;;;;;;5027701;28;20085;-89
2023/02/10 00:57:28;;;;;;;27.08;14.40;;;;;;;;;;5028071;28;20117;-88
2023/02/10 00:59:56;;;;;;;27.77;13.35;;;;;;;;;;5028408;28;20049;-88
2023/02/10 01:02:24;;;;;;;24.27;12.23;;;;;;;;;;5036061;28;20050;-89
2023/02/10 01:04:51;;;;;;;28.10;13.38;;;;;;;;;;5041813;28;20063;-88
2023/02/10 01:07:20;;;;;;;28.77;13.65;;;;;;;;;;5034343;28;20075;-89
2023/02/10 01:09:50;;;;;;;31.23;14.10;;;;;;;;;;5028444;28;20077;-89
2023/02/10 01:12:17;;;;;;;27.17;13.80;;;;;;;;;;5027394;28;20152;-89
2023/02/10 01:14:49;;;;;;;30.60;12.57;;;;;;;;;;5027293;28;20120;-89
2023/02/10 01:17:17;;;;;;;28.35;14.00;;;;;;;;;;5043703;28;20140;-89
2023/02/10 01:19:44;;;;;;;24.90;12.00;;;;;;;;;;5025986;28;20482;-89
2023/02/10 01:22:11;;;;;;;25.70;13.23;;;;;;;;;;5025408;28;20057;-89
2023/02/10 01:24:38;;;;;;;25.48;12.48;;;;;;;;;;5025616;28;20057;-88
2023/02/10 01:27:06;;;;;;;28.02;13.32;;;;;;;;;;5025907;28;20482;-88
2023/02/10 01:29:33;;;;;;;26.00;12.77;;;;;;;;;;5025228;28;20490;-89
2023/02/10 01:32:00;;;;;;;24.63;13.00;;;;;;;;;;5042507;28;20053;-88
2023/02/10 01:34:28;;;;;;;26.73;13.05;;;;;;;;;;5025000;28;20049;-89
2023/02/10 01:36:56;;;;;;;25.35;13.13;;;;;;;;;;5025578;28;20046;-89
2023/02/10 01:39:23;;;;;;;30.23;13.13;;;;;;;;;;5025429;28;20460;-89
2023/02/10 01:41:50;;;;;;;27.60;13.18;;;;;;;;;;5026280;28;20080;-89
2023/02/10 01:44:20;;;;;;;30.10;15.00;;;;;;;;;;5042887;28;20049;-89
2023/02/10 01:46:48;;;;;;;26.05;13.32;;;;;;;;;;5026343;28;20066;-89
2023/02/10 01:49:17;;;;;;;25.02;11.98;;;;;;;;;;5043784;28;20049;-89
2023/02/10 01:52:00;;;;;;;27.83;13.23;;;;;;;;;;5026816;28;20085;-89
2023/02/10 01:54:30;;;;;;;28.75;14.07;;;;;;;;;;5026909;28;20080;-89
2023/02/10 01:56:57;;;;;;;29.55;13.85;;;;;;;;;;5025503;28;20049;-89
2023/02/10 01:59:27;;;;;;;27.60;14.45;;;;;;;;;;5043272;28;20081;-89
2023/02/10 02:01:55;;;;;;;31.67;14.38;;;;;;;;;;5024865;28;20500;-89
2023/02/10 02:04:22;;;;;;;30.15;13.80;;;;;;;;;;5024648;28;20060;-89
2023/02/10 02:06:50;;;;;;;28.60;14.07;;;;;;;;;;5042426;28;20068;-89
2023/02/10 02:09:17;;;;;;;25.08;13.45;;;;;;;;;;5041321;28;20538;-89
2023/02/10 02:11:51;;;;;;;30.42;13.98;;;;;;;;;;5023606;28;20132;-89
2023/02/10 02:14:30;;;;;;;24.80;12.52;;;;;;;;;;5040634;28;20072;-89
2023/02/10 02:17:19;;;;;;;26.27;13.25;;;;;;;;;;5024071;28;20057;-89
2023/02/10 02:23:13;;;;;;;30.85;14.35;;;;;;;;;;5041785;28;20081;-89
2023/02/10 02:25:57;;;;;;;31.00;13.43;;;;;;;;;;5023831;28;20057;-89
2023/02/10 02:28:42;;;;;;;31.13;14.73;;;;;;;;;;5041562;28;20042;-89
2023/02/10 02:31:28;;;;;;;27.80;13.15;;;;;;;;;;5042794;28;20049;-90
2023/02/10 02:33:58;;;;;;;29.35;13.52;;;;;;;;;;5025140;28;20119;-89
2023/02/10 02:36:37;;;;;;;27.13;13.55;;;;;;;;;;5024970;28;20041;-89
2023/02/10 02:39:05;;;;;;;29.80;13.82;;;;;;;;;;5042111;28;20049;-89
2023/02/10 02:41:33;;;;;;;31.88;14.32;;;;;;;;;;5025771;28;20057;-89
2023/02/10 02:44:02;;;;;;;34.15;15.48;;;;;;;;;;5026235;28;20060;-90
2023/02/10 02:46:37;;;;;;;29.73;13.50;;;;;;;;;;5042743;28;20049;-89
2023/02/10 02:49:23;;;;;;;29.70;14.38;;;;;;;;;;5043252;28;20045;-89
2023/02/10 02:52:01;;;;;;;31.30;14.43;;;;;;;;;;5043168;28;20148;-90
2023/02/10 02:54:39;;;;;;;36.55;15.52;;;;;;;;;;5048337;28;20045;-90
2023/02/10 02:57:13;;;;;;;39.40;16.55;;;;;;;;;;5052045;28;20121;-89
2023/02/10 02:59:43;;;;;;;34.60;15.18;;;;;;;;;;5033850;28;20033;-89
2023/02/10 03:02:12;;;;;;;31.60;15.48;;;;;;;;;;5040192;28;20113;-90
2023/02/10 03:04:40;;;;;;;37.00;15.90;;;;;;;;;;5027155;28;20101;-89
2023/02/10 03:07:08;;;;;;;30.20;14.68;;;;;;;;;;5022914;28;20129;-89
2023/02/10 03:09:36;;;;;;;31.00;15.77;;;;;;;;;;5023411;28;20121;-90
2023/02/10 03:12:04;;;;;;;32.25;15.95;;;;;;;;;;5023501;28;20056;-90
2023/02/10 03:14:32;;;;;;;32.60;15.30;;;;;;;;;;5023542;28;20089;-89
2023/02/10 03:16:59;;;;;;;37.40;17.73;;;;;;;;;;5023460;28;20072;-90
2023/02/10 03:19:26;;;;;;;38.80;18.65;;;;;;;;;;5023663;28;20056;-90
2023/02/10 03:21:53;;;;;;;38.85;18.00;;;;;;;;;;5023441;28;20490;-89
2023/02/10 03:24:21;;;;;;;39.75;19.02;;;;;;;;;;5041001;28;20375;-90
2023/02/10 03:26:48;;;;;;;35.45;17.85;;;;;;;;;;5023426;28;20430;-90
2023/02/10 03:29:16;;;;;;;40.78;18.50;;;;;;;;;;5040693;28;20052;-90
2023/02/10 03:31:43;;;;;;;35.63;17.45;;;;;;;;;;5023462;28;20046;-89
2023/02/10 03:34:11;;;;;;;33.80;17.23;;;;;;;;;;5023302;28;20443;-90
2023/02/10 03:36:38;;;;;;;32.38;17.25;;;;;;;;;;5024648;28;20053;-89
2023/02/10 03:39:05;;;;;;;31.58;17.00;;;;;;;;;;5027224;28;20053;-90
2023/02/10 03:41:33;;;;;;;32.97;17.85;;;;;;;;;;5044102;28;20101;-89
2023/02/10 03:44:00;;;;;;;31.85;16.17;;;;;;;;;;5044798;28;20053;-89
2023/02/10 03:46:28;;;;;;;34.65;16.70;;;;;;;;;;5027013;28;20553;-89
2023/02/10 03:48:56;;;;;;;32.95;17.20;;;;;;;;;;5044842;28;20552;-89
2023/02/10 03:51:23;;;;;;;36.22;17.60;;;;;;;;;;5026784;28;20077;-90
2023/02/10 03:53:51;;;;;;;33.88;17.50;;;;;;;;;;5026454;28;20108;-89
2023/02/10 03:56:18;;;;;;;37.10;18.92;;;;;;;;;;5026217;28;20046;-90
2023/02/10 03:58:46;;;;;;;33.75;17.15;;;;;;;;;;5043064;28;20572;-89
2023/02/10 04:01:14;;;;;;;35.80;17.95;;;;;;;;;;5042593;28;20076;-89
2023/02/10 04:03:42;;;;;;;37.45;17.08;;;;;;;;;;5024778;28;20112;-90
2023/02/10 04:06:10;;;;;;;37.33;18.17;;;;;;;;;;5024492;28;20052;-89
2023/02/10 04:08:38;;;;;;;35.40;17.67;;;;;;;;;;5024535;28;20064;-89
2023/02/10 04:11:07;;;;;;;33.08;16.83;;;;;;;;;;5024956;28;20128;-90
2023/02/10 04:13:35;;;;;;;34.30;17.33;;;;;;;;;;5033971;28;20095;-90
2023/02/10 04:16:04;;;;;;;33.50;18.58;;;;;;;;;;5044721;28;20051;-89
2023/02/10 04:18:33;;;;;;;37.75;18.00;;;;;;;;;;5044382;28;20075;-89
2023/02/10 04:21:01;;;;;;;33.78;18.08;;;;;;;;;;5043776;28;20057;-89
2023/02/10 04:23:29;;;;;;;37.85;19.58;;;;;;;;;;5043771;28;20072;-89
2023/02/10 04:25:56;;;;;;;35.67;17.95;;;;;;;;;;5061589;28;20045;-90
2023/02/10 04:28:23;;;;;;;37.40;18.70;;;;;;;;;;5044324;28;20049;-89
2023/02/10 04:30:54;;;;;;;36.65;18.55;;;;;;;;;;5044843;28;20059;-89
2023/02/10 04:33:21;;;;;;;36.63;17.42;;;;;;;;;;5062013;28;20049;-89
2023/02/10 04:35:49;;;;;;;35.72;18.17;;;;;;;;;;5044023;28;20084;-89
2023/02/10 04:38:17;;;;;;;38.22;18.35;;;;;;;;;;5062210;28;20049;-89
2023/02/10 04:40:44;;;;;;;33.25;17.83;;;;;;;;;;5044244;28;20508;-89
2023/02/10 04:43:12;;;;;;;38.03;17.77;;;;;;;;;;5044148;28;20049;-88
2023/02/10 04:45:39;;;;;;;33.38;17.77;;;;;;;;;;5043953;28;20053;-89
2023/02/10 04:48:08;;;;;;;34.35;18.60;;;;;;;;;;5044741;28;20045;-89
2023/02/10 04:50:37;;;;;;;34.35;18.25;;;;;;;;;;5045009;28;20446;-89
2023/02/10 04:53:05;;;;;;;37.65;19.80;;;;;;;;;;5043636;28;20055;-89
2023/02/10 04:55:32;;;;;;;34.35;18.88;;;;;;;;;;5043879;28;20499;-89
2023/02/10 04:58:00;;;;;;;37.67;17.90;;;;;;;;;;5043893;28;20150;-89
2023/02/10 05:00:27;;;;;;;38.17;18.25;;;;;;;;;;5068005;28;20124;-89
2023/02/10 05:02:54;;;;;;;31.05;18.20;;;;;;;;;;5076602;28;20033;-90
2023/02/10 05:05:24;;;;;;;38.50;19.08;;;;;;;;;;5056527;28;20477;-89
2023/02/10 05:07:52;;;;;;;35.63;18.60;;;;;;;;;;5046246;28;20652;-89
2023/02/10 05:10:20;;;;;;;36.00;18.88;;;;;;;;;;5044917;28;20040;-88
2023/02/10 05:12:47;;;;;;;40.35;19.30;;;;;;;;;;5045967;28;20053;-89
2023/02/10 05:15:14;;;;;;;36.80;18.92;;;;;;;;;;5062956;28;20052;-89
2023/02/10 05:17:42;;;;;;;38.17;19.77;;;;;;;;;;5063004;28;20037;-89
2023/02/10 05:20:09;;;;;;;40.30;20.40;;;;;;;;;;5047582;28;20061;-89
2023/02/10 05:22:37;;;;;;;36.92;19.17;;;;;;;;;;5046741;28;20051;-89
2023/02/10 05:25:04;;;;;;;35.65;17.95;;;;;;;;;;5064297;28;20059;-89
2023/02/10 05:27:31;;;;;;;36.45;18.33;;;;;;;;;;5064200;28;20087;-89
2023/02/10 05:29:58;;;;;;;39.72;19.15;;;;;;;;;;5046331;28;20045;-89
2023/02/10 05:32:26;;;;;;;35.03;18.50;;;;;;;;;;5047518;28;20048;-89
2023/02/10 05:34:53;;;;;;;40.20;19.17;;;;;;;;;;5046433;28;20048;-89
2023/02/10 05:37:21;;;;;;;33.35;18.00;;;;;;;;;;5046470;28;20045;-89
2023/02/10 05:39:48;;;;;;;37.63;18.48;;;;;;;;;;5046643;28;20071;-89
2023/02/10 05:42:15;;;;;;;35.63;19.65;;;;;;;;;;5045957;28;20045;-89
2023/02/10 05:44:43;;;;;;;34.53;18.77;;;;;;;;;;5045280;28;20053;-89
2023/02/10 05:47:10;;;;;;;37.47;18.92;;;;;;;;;;5045829;28;20053;-89
2023/02/10 05:49:37;;;;;;;36.25;19.38;;;;;;;;;;5046117;28;20049;-89
2023/02/10 05:52:04;;;;;;;39.58;19.23;;;;;;;;;;5063808;28;20113;-89
2023/02/10 05:54:32;;;;;;;35.75;19.38;;;;;;;;;;5064679;28;20065;-89
2023/02/10 05:56:59;;;;;;;34.50;17.98;;;;;;;;;;5050254;28;20124;-89
2023/02/10 05:59:26;;;;;;;36.35;18.05;;;;;;;;;;5051450;28;20045;-89
2023/02/10 06:01:54;;;;;;;36.13;19.92;;;;;;;;;;5051170;28;20080;-89
2023/02/10 06:04:21;;;;;;;34.80;19.20;;;;;;;;;;5050868;28;20055;-89
2023/02/10 06:06:48;;;;;;;44.08;20.15;;;;;;;;;;5053266;28;20129;-89
2023/02/10 06:09:16;;;;;;;40.78;19.08;;;;;;;;;;5053435;28;20045;-89
2023/02/10 06:11:43;;;;;;;47.08;19.90;;;;;;;;;;5066526;28;20513;-88
2023/02/10 06:14:11;;;;;;;52.45;20.95;;;;;;;;;;5052416;28;20131;-89
2023/02/10 06:16:38;;;;;;;43.30;19.40;;;;;;;;;;5069725;28;20076;-89
2023/02/10 06:19:06;;;;;;;40.92;18.95;;;;;;;;;;5055054;28;20060;-88
2023/02/10 06:21:33;;;;;;;45.05;20.95;;;;;;;;;;5054553;28;20045;-88
2023/02/10 06:24:00;;;;;;;45.83;21.08;;;;;;;;;;5070641;28;20059;-88
2023/02/10 06:26:28;;;;;;;46.35;21.83;;;;;;;;;;5072868;28;20108;-89
2023/02/10 06:28:56;;;;;;;40.33;20.45;;;;;;;;;;5074354;28;20077;-89
2023/02/10 06:31:25;;;;;;;38.03;19.75;;;;;;;;;;5074398;28;20051;-89
2023/02/10 06:33:53;;;;;;;39.67;21.48;;;;;;;;;;5057146;28;20049;-88
2023/02/10 06:36:20;;;;;;;42.20;21.60;;;;;;;;;;5056827;28;20037;-88
2023/02/10 06:38:48;;;;;;;40.15;20.83;;;;;;;;;;5073065;28;20048;-89
2023/02/10 06:41:15;;;;;;;38.90;20.45;;;;;;;;;;5055788;28;20052;-88
2023/02/10 06:43:43;;;;;;;35.60;20.25;;;;;;;;;;5056504;28;20064;-88
2023/02/10 06:46:12;;;;;;;39.10;20.63;;;;;;;;;;5057030;28;20041;-89
2023/02/10 06:48:40;;;;;;;37.92;20.45;;;;;;;;;;5057051;28;20112;-89
2023/02/10 06:51:07;;;;;;;43.67;20.55;;;;;;;;;;5074573;28;20052;-88
2023/02/10 06:53:35;;;;;;;37.53;20.00;;;;;;;;;;5056370;28;20064;-88
2023/02/10 06:56:05;;;;;;;42.33;20.95;;;;;;;;;;5074062;28;20072;-88
2023/02/10 06:58:32;;;;;;;50.47;21.20;;;;;;;;;;5057595;28;20049;-87
2023/02/10 07:01:00;;;;;;;45.35;21.00;;;;;;;;;;5060714;28;20025;-87
2023/02/10 07:03:28;;;;;;;46.33;21.52;;;;;;;;;;5060814;28;20054;-87
2023/02/10 07:05:55;;;;;;;52.08;25.17;;;;;;;;;;5057358;28;20068;-88
2023/02/10 07:08:22;;;;;;;35.70;19.45;;;;;;;;;;5056939;28;20060;-88
2023/02/10 07:10:50;;;;;;;43.20;19.25;;;;;;;;;;5073456;28;20045;-88
2023/02/10 07:13:17;;;;;;;38.63;20.60;;;;;;;;;;5076452;28;20056;-88
2023/02/10 07:15:46;;;;;;;45.83;22.38;;;;;;;;;;5059416;28;20064;-88
2023/02/10 07:18:14;;;;;;;44.38;21.83;;;;;;;;;;5077637;28;20104;-88
2023/02/10 07:20:42;;;;;;;41.10;21.23;;;;;;;;;;5059596;28;20135;-87
2023/02/10 07:23:09;;;;;;;38.05;20.70;;;;;;;;;;5059361;28;20068;-88
2023/02/10 07:25:36;;;;;;;39.60;22.02;;;;;;;;;;5059872;28;20069;-87
2023/02/10 07:28:04;;;;;;;37.80;19.92;;;;;;;;;;5059649;28;20045;-88
2023/02/10 07:30:31;;;;;;;38.70;21.70;;;;;;;;;;5059547;28;20048;-88
2023/02/10 07:32:59;;;;;;;39.45;20.77;;;;;;;;;;5059294;28;20113;-87
2023/02/10 07:35:26;;;;;;;44.35;22.70;;;;;;;;;;5059309;28;20067;-87
2023/02/10 07:37:54;;;;;;;82.65;44.28;;;;;;;;;;5076006;28;20082;-87
2023/02/10 07:40:22;;;;;;;54.28;28.55;;;;;;;;;;5058732;28;20045;-87
2023/02/10 07:42:49;;;;;;;50.85;26.00;;;;;;;;;;5058892;28;20053;-87
2023/02/10 07:45:17;;;;;;;39.65;19.30;;;;;;;;;;5076950;28;20051;-86
2023/02/10 07:47:44;;;;;;;44.97;21.17;;;;;;;;;;5059851;28;20052;-87
2023/02/10 07:50:11;;;;;;;40.47;21.95;;;;;;;;;;5058972;28;20045;-87
2023/02/10 07:52:41;;;;;;;42.60;20.50;;;;;;;;;;5076725;28;20083;-87
2023/02/10 07:55:08;;;;;;;38.22;19.95;;;;;;;;;;5059335;28;20413;-87
2023/02/10 07:57:38;;;;;;;38.65;19.88;;;;;;;;;;5059063;28;20063;-87
2023/02/10 08:00:07;;;;;;;40.20;20.10;;;;;;;;;;5059898;28;20081;-87
2023/02/10 08:02:35;;;;;;;38.20;19.20;;;;;;;;;;5058624;28;20056;-88
2023/02/10 08:05:02;;;;;;;34.72;17.50;;;;;;;;;;5076844;28;20048;-87
2023/02/10 08:07:30;;;;;;;43.78;19.30;;;;;;;;;;5077619;28;20056;-87
2023/02/10 08:09:57;;;;;;;34.67;18.42;;;;;;;;;;5060154;28;20049;-87
2023/02/10 08:12:24;;;;;;;37.63;19.05;;;;;;;;;;5076595;28;20059;-86
2023/02/10 08:14:52;;;;;;;35.95;19.85;;;;;;;;;;5059790;28;20508;-88
2023/02/10 08:17:19;;;;;;;37.83;19.42;;;;;;;;;;5059409;28;20048;-87
2023/02/10 08:19:46;;;;;;;37.40;21.58;;;;;;;;;;5059881;28;20056;-87
2023/02/10 08:22:14;;;;;;;38.80;19.88;;;;;;;;;;5075707;28;20052;-86
2023/02/10 08:24:42;;;;;;;34.95;19.25;;;;;;;;;;5057182;28;20048;-86
2023/02/10 08:27:09;;;;;;;43.08;23.00;;;;;;;;;;5057978;28;20059;-87
2023/02/10 08:29:38;;;;;;;43.85;24.23;;;;;;;;;;5076205;28;20044;-87
2023/02/10 08:32:05;;;;;;;36.72;20.10;;;;;;;;;;5058702;28;20056;-87
2023/02/10 08:34:33;;;;;;;38.38;20.70;;;;;;;;;;5075947;28;20049;-86
2023/02/10 08:37:00;;;;;;;37.20;20.13;;;;;;;;;;5059043;28;20079;-87
2023/02/10 08:39:28;;;;;;;69.22;34.47;;;;;;;;;;5058024;28;20049;-87
2023/02/10 08:41:56;;;;;;;56.25;28.35;;;;;;;;;;5058815;28;20045;-85
2023/02/10 08:44:24;;;;;;;42.53;22.95;;;;;;;;;;5075976;28;20052;-86
2023/02/10 08:46:52;;;;;;;47.22;25.25;;;;;;;;;;5058055;28;20041;-86
2023/02/10 08:49:22;;;;;;;47.13;24.67;;;;;;;;;;5052664;28;20064;-86
2023/02/10 08:51:49;;;;;;;47.38;23.48;;;;;;;;;;5057511;28;20049;-86
2023/02/10 08:54:16;;;;;;;42.63;22.17;;;;;;;;;;5056802;28;20107;-86
2023/02/10 08:56:43;;;;;;;40.75;21.63;;;;;;;;;;5075394;28;20080;-86
2023/02/10 08:59:11;;;;;;;40.70;21.98;;;;;;;;;;5059891;28;20025;-86
2023/02/10 09:01:39;;;;;;;35.83;21.35;;;;;;;;;;5075527;28;20045;-87
2023/02/10 09:04:06;;;;;;;37.90;19.70;;;;;;;;;;5056300;28;20076;-87
2023/02/10 09:06:39;;;;;;;43.25;21.00;;;;;;;;;;5054601;28;20486;-85
2023/02/10 09:09:22;;;;;;;40.40;19.70;;;;;;;;;;5052560;28;20049;-86
2023/02/10 09:11:49;;;;;;;33.50;18.75;;;;;;;;;;5035134;28;20083;-85
2023/02/10 09:14:17;;;;;;;30.92;18.45;;;;;;;;;;5069069;28;20049;-86
2023/02/10 09:16:44;;;;;;;37.80;17.85;;;;;;;;;;5050100;28;20083;-86
2023/02/10 09:19:11;;;;;;;43.13;18.00;;;;;;;;;;5046306;28;20045;-86
2023/02/10 09:21:39;;;;;;;30.95;17.55;;;;;;;;;;5049354;28;20048;-87
2023/02/10 09:24:13;;;;;;;29.92;18.35;;;;;;;;;;5051921;28;20060;-87
2023/02/10 09:26:41;;;;;;;30.52;18.17;;;;;;;;;;5051489;28;20059;-84
2023/02/10 09:29:08;;;;;;;27.42;17.58;;;;;;;;;;5053052;28;20049;-84
2023/02/10 09:31:36;;;;;;;30.92;18.25;;;;;;;;;;5053813;28;20109;-84
2023/02/10 09:34:04;;;;;;;31.65;17.88;;;;;;;;;;5052529;28;20048;-84
2023/02/10 09:36:31;;;;;;;28.27;17.33;;;;;;;;;;5070492;28;20045;-81
2023/02/10 09:38:59;;;;;;;29.83;17.45;;;;;;;;;;5053127;28;20045;-85
2023/02/10 09:41:32;;;;;;;29.33;17.02;;;;;;;;;;5053469;28;20120;-84
2023/02/10 09:43:59;;;;;;;;;;;;;;;;;;5070922;28;20493;-83
2023/02/10 09:46:31;;;;;;;23.70;16.30;;;;;;;;;;5070529;28;19921;-84
2023/02/10 09:49:18;;;;;;;32.35;16.48;;;;;;;;;;5052848;28;20068;-84
2023/02/10 09:51:59;;;;;;;34.28;17.65;;;;;;;;;;5053690;28;20140;-84
2023/02/10 09:54:31;;;;;;;28.90;15.88;;;;;;;;;;5055035;28;20068;-84
2023/02/10 09:57:06;;;;;;;27.63;15.75;;;;;;;;;;5054886;28;20053;-84
2023/02/10 09:59:34;;;;;;;25.88;16.13;;;;;;;;;;5071537;28;20056;-84
2023/02/10 10:02:10;;;;;;;40.65;16.55;;;;;;;;;;5071515;28;20055;-84
2023/02/10 10:04:38;;;;;;;24.17;14.68;;;;;;;;;;5054638;28;20053;-84
2023/02/10 10:07:23;;;;;;;30.00;15.95;;;;;;;;;;5048954;28;20053;-83
2023/02/10 10:10:00;;;;;;;34.65;15.48;;;;;;;;;;5052275;28;20056;-84
2023/02/10 10:12:29;;;;;;;25.00;14.88;;;;;;;;;;5053608;28;20489;-84
2023/02/10 10:14:56;;;;;;;22.00;14.48;;;;;;;;;;5069915;28;20053;-84
2023/02/10 10:17:33;;;;;;;22.90;14.68;;;;;;;;;;5070968;28;20067;-84
2023/02/10 10:20:10;;;;;;;22.83;14.32;;;;;;;;;;5054037;28;20041;-84
2023/02/10 10:22:37;;;;;;;22.02;14.27;;;;;;;;;;5053589;28;20049;-85
2023/02/10 10:25:16;;;;;;;26.30;13.63;;;;;;;;;;5070773;28;20041;-83
2023/02/10 10:27:55;;;;;;;40.97;15.35;;;;;;;;;;5053648;28;20048;-83
2023/02/10 10:30:36;;;;;;;22.48;14.60;;;;;;;;;;5053306;28;20051;-84
2023/02/10 10:33:11;;;;;;;21.33;13.13;;;;;;;;;;5071893;28;20076;-84
2023/02/10 10:35:40;;;;;;;21.85;12.60;;;;;;;;;;5054399;28;20045;-83
2023/02/10 10:38:13;;;;;;;30.02;13.55;;;;;;;;;;5053025;28;20125;-84
2023/02/10 10:40:41;;;;;;;19.88;12.38;;;;;;;;;;5058156;28;20124;-83
2023/02/10 10:43:12;;;;;;;15.98;12.63;;;;;;;;;;5037019;28;20076;-84
2023/02/10 10:45:43;;;;;;;15.85;11.85;;;;;;;;;;5034090;28;20081;-83
2023/02/10 10:48:15;;;;;;;17.63;11.55;;;;;;;;;;5034377;28;20045;-83
2023/02/10 10:50:43;;;;;;;20.90;11.20;;;;;;;;;;5051688;28;20109;-83
2023/02/10 10:53:23;;;;;;;23.17;15.25;;;;;;;;;;5037310;28;20037;-84
2023/02/10 10:55:51;;;;;;;16.23;9.98;;;;;;;;;;5041270;28;20063;-82
2023/02/10 10:58:18;;;;;;;29.90;11.38;;;;;;;;;;5040084;28;20046;-83
2023/02/10 11:00:53;;;;;;;38.30;12.00;;;;;;;;;;5051870;28;20045;-83
2023/02/10 11:03:20;;;;;;;49.45;37.95;;;;;;;;;;5034025;28;20061;-83
2023/02/10 11:06:06;;;;;;;14.38;9.93;;;;;;;;;;5051087;28;20081;-83
2023/02/10 11:08:38;;;;;;;22.98;17.20;;;;;;;;;;5034346;28;20077;-83
2023/02/10 11:11:09;;;;;;;12.85;9.50;;;;;;;;;;5034914;28;20042;-83
2023/02/10 11:13:38;;;;;;;20.38;10.05;;;;;;;;;;5051417;28;20101;-82
2023/02/10 11:16:10;;;;;;;11.55;8.70;;;;;;;;;;5034899;28;20053;-83
2023/02/10 11:18:37;;;;;;;19.83;9.25;;;;;;;;;;5033969;28;20053;-83
2023/02/10 11:21:10;;;;;;;13.88;8.38;;;;;;;;;;5035790;28;20050;-83
2023/02/10 11:23:48;;;;;;;11.85;7.97;;;;;;;;;;5052876;28;20053;-83
2023/02/10 11:26:18;;;;;;;11.98;8.50;;;;;;;;;;5051855;28;20060;-83
2023/02/10 11:28:45;;;;;;;9.73;8.68;;;;;;;;;;5053152;28;20544;-83
2023/02/10 11:31:22;;;;;;;19.58;9.88;;;;;;;;;;5035293;28;20052;-83
2023/02/10 11:33:55;;;;;;;12.20;8.70;;;;;;;;;;5052264;28;20076;-83
2023/02/10 11:36:30;;;;;;;12.38;8.73;;;;;;;;;;5035401;28;20049;-83
2023/02/10 11:39:06;;;;;;;11.93;8.68;;;;;;;;;;5035529;28;20049;-83
2023/02/10 11:41:34;;;;;;;16.02;9.25;;;;;;;;;;5053092;28;20080;-83
2023/02/10 11:44:02;;;;;;;13.18;9.48;;;;;;;;;;5041376;28;20045;-83
2023/02/10 11:46:31;;;;;;;9.88;8.45;;;;;;;;;;5071911;28;20053;-83
2023/02/10 11:48:59;;;;;;;20.02;8.85;;;;;;;;;;5072527;28;20049;-83
2023/02/10 11:51:30;;;;;;;8.80;7.63;;;;;;;;;;5049604;28;20025;-83
2023/02/10 11:53:58;;;;;;;14.73;8.65;;;;;;;;;;5049164;28;20052;-83
2023/02/10 11:59:35;;;;;;;16.27;8.60;;;;;;;;;;5076245;28;20083;-83
2023/02/10 12:02:23;;;;;;;8.57;6.43;;;;;;;;;;5058265;28;20076;-84
2023/02/10 12:04:59;;;;;;;8.88;5.95;;;;;;;;;;5057896;28;20044;-83
2023/02/10 12:07:42;;;;;;;6.03;4.55;;;;;;;;;;5059110;28;20057;-84
2023/02/10 12:10:17;;;;;;;8.43;4.68;;;;;;;;;;5051800;28;20068;-84
2023/02/10 12:12:48;;;;;;;4.82;4.32;;;;;;;;;;5057107;28;20076;-83
2023/02/10 12:15:32;;;;;;;9.68;3.88;;;;;;;;;;5059062;28;20051;-82
2023/02/10 12:18:13;;;;;;;5.65;3.75;;;;;;;;;;5058607;28;20052;-83
2023/02/10 12:20:43;;;;;;;13.20;4.10;;;;;;;;;;5060175;28;20051;-84
2023/02/10 12:23:33;;;;;;;3.97;3.65;;;;;;;;;;5060287;28;20041;-82
2023/02/10 12:26:03;;;;;;;6.85;3.72;;;;;;;;;;5058850;28;20053;-83
2023/02/10 12:28:38;;;;;;;4.25;3.55;;;;;;;;;;5059980;28;20049;-83
2023/02/10 12:31:20;;;;;;;5.70;3.38;;;;;;;;;;5060234;28;20049;-82
2023/02/10 12:33:51;;;;;;;3.65;3.10;;;;;;;;;;5061004;28;20068;-82
2023/02/10 12:36:26;;;;;;;8.10;3.70;;;;;;;;;;5059847;28;20045;-83
2023/02/10 12:39:01;;;;;;;6.45;3.33;;;;;;;;;;5060393;28;20078;-83
2023/02/10 12:41:54;;;;;;;3.25;2.90;;;;;;;;;;5076763;28;20069;-82
2023/02/10 12:44:28;;;;;;;3.50;3.00;;;;;;;;;;5044314;28;20033;-82
2023/02/10 12:46:55;;;;;;;7.25;2.83;;;;;;;;;;5060323;28;20049;-83
2023/02/10 12:49:42;;;;;;;3.70;3.28;;;;;;;;;;5079912;28;20083;-83
2023/02/10 12:52:12;;;;;;;4.40;3.20;;;;;;;;;;5062167;28;20025;-84
2023/02/10 12:54:42;;;;;;;4.35;3.10;;;;;;;;;;5059457;28;20053;-84
2023/02/10 12:57:31;;;;;;;6.47;3.97;;;;;;;;;;5059411;28;20079;-84
2023/02/10 13:00:04;;;;;;;4.90;4.38;;;;;;;;;;5055786;28;20095;-83
2023/02/10 13:02:38;;;;;;;5.50;4.03;;;;;;;;;;5057111;28;20048;-83
2023/02/10 13:05:05;;;;;;;;;;;;;;;;;;5056478;28;20535;-84
2023/02/10 13:07:38;;;;;;;5.47;4.45;;;;;;;;;;5044847;28;19960;-84
2023/02/10 13:10:24;;;;;;;6.30;4.87;;;;;;;;;;5066351;28;20442;-83
2023/02/10 13:13:29;;;;;;;6.30;4.05;;;;;;;;;;5072748;28;20127;-85
2023/02/10 13:15:56;;;;;;;;;;;;;;;;;;5075323;28;20102;-85
2023/02/10 13:18:25;;;;;;;7.80;4.05;;;;;;;;;;5054091;28;19925;-84
2023/02/10 13:20:56;;;;;;;4.95;4.10;;;;;;;;;;5070576;28;20073;-82
2023/02/10 13:23:31;;;;;;;6.35;4.10;;;;;;;;;;5053130;28;20108;-83
2023/02/10 13:26:12;;;;;;;8.68;4.65;;;;;;;;;;5070837;28;20049;-83
2023/02/10 13:28:49;;;;;;;12.70;5.45;;;;;;;;;;5071122;28;20115;-82
2023/02/10 13:32:20;;;;;;;9.55;5.97;;;;;;;;;;5052374;28;20111;-82
2023/02/10 13:34:42;;;;;;;10.23;6.63;;;;;;;;;;5068323;28;20049;-81
2023/02/10 13:37:13;;;;;;;10.65;6.95;;;;;;;;;;5051226;28;20072;-82
2023/02/10 13:39:49;;;;;;;18.30;8.02;;;;;;;;;;5053008;28;20477;-82
2023/02/10 13:42:27;;;;;;;10.00;6.28;;;;;;;;;;5070592;28;20048;-81
2023/02/10 13:45:14;;;;;;;12.60;7.68;;;;;;;;;;5052353;28;20037;-82
2023/02/10 13:47:45;;;;;;;11.60;6.90;;;;;;;;;;5069400;28;20045;-82
2023/02/10 13:50:13;;;;;;;15.15;6.97;;;;;;;;;;5070585;28;20079;-83
2023/02/10 13:52:55;;;;;;;37.80;8.27;;;;;;;;;;5053151;28;20049;-82
2023/02/10 13:55:22;;;;;;;12.63;6.20;;;;;;;;;;5053395;28;20052;-83
2023/02/10 13:58:15;;;;;;;11.00;6.03;;;;;;;;;;5051713;28;20051;-82
2023/02/10 14:00:44;;;;;;;8.45;5.88;;;;;;;;;;5069123;28;20560;-83
2023/02/10 14:03:17;;;;;;;8.18;6.28;;;;;;;;;;5053269;28;20056;-82
2023/02/10 14:05:51;;;;;;;10.45;6.55;;;;;;;;;;5072247;28;20053;-83
2023/02/10 14:08:49;;;;;;;9.50;6.80;;;;;;;;;;5072692;28;20048;-83
2023/02/10 14:11:29;;;;;;;13.55;7.10;;;;;;;;;;5072209;28;20067;-83
2023/02/10 14:13:59;;;;;;;9.73;6.85;;;;;;;;;;5053437;28;20063;-83
2023/02/10 14:16:31;;;;;;;10.05;7.78;;;;;;;;;;5052473;28;20052;-83
2023/02/10 14:18:59;;;;;;;12.45;8.70;;;;;;;;;;5053568;28;20118;-83
2023/02/10 14:21:27;;;;;;;12.20;8.43;;;;;;;;;;5052479;28;20067;-83
2023/02/10 14:23:55;;;;;;;17.70;9.35;;;;;;;;;;5053825;28;20108;-84
2023/02/10 14:26:29;;;;;;;18.35;10.80;;;;;;;;;;5053996;28;20053;-83
2023/02/10 14:28:58;;;;;;;14.60;9.82;;;;;;;;;;5054360;28;20049;-83
2023/02/10 14:31:27;;;;;;;17.23;10.07;;;;;;;;;;5058071;28;20444;-83
2023/02/10 14:33:59;;;;;;;17.00;11.75;;;;;;;;;;5057441;28;20029;-83
2023/02/10 14:36:27;;;;;;;17.58;11.50;;;;;;;;;;5056531;28;20083;-84
2023/02/10 14:38:55;;;;;;;23.20;12.65;;;;;;;;;;5066827;28;20055;-84
2023/02/10 14:41:23;;;;;;;17.95;12.20;;;;;;;;;;5059593;28;20068;-85
2023/02/10 14:43:52;;;;;;;23.60;12.73;;;;;;;;;;5077204;28;20039;-83
2023/02/10 14:46:21;;;;;;;23.63;13.52;;;;;;;;;;5068870;28;20140;-83